createdAt,value
2022-10-01T00:01:26.516Z,12.48
2022-10-01T00:03:54.799Z,12.38
2022-10-01T00:06:22.611Z,11.95
2022-10-01T00:08:50.996Z,12.30
2022-10-01T00:11:24.726Z,11.93
2022-10-01T00:13:53.109Z,10.95
2022-10-01T00:16:23.761Z,10.20
2022-10-01T00:18:53.953Z,10.48
2022-10-01T00:21:27.063Z,8.45
2022-10-01T00:23:56.587Z,7.22
2022-10-01T00:26:27.286Z,6.72
2022-10-01T00:29:07.237Z,6.22
2022-10-01T00:31:35.372Z,6.32
2022-10-01T00:34:04.135Z,6.68
2022-10-01T00:36:33.058Z,6.35
2022-10-01T00:39:02.126Z,6.05
2022-10-01T00:41:33.092Z,6.47
2022-10-01T00:44:04.738Z,5.88
2022-10-01T00:46:51.519Z,6.05
2022-10-01T00:49:24.366Z,5.13
2022-10-01T00:52:04.698Z,5.68
2022-10-01T00:55:01.978Z,5.82
2022-10-01T00:57:30.171Z,5.47
2022-10-01T01:00:00.868Z,6.72
2022-10-01T01:02:28.663Z,6.30
2022-10-01T01:04:56.327Z,5.45
2022-10-01T01:07:23.921Z,6.35
2022-10-01T01:09:53.727Z,5.43
2022-10-01T01:12:50.268Z,5.93
2022-10-01T01:15:36.947Z,6.82
2022-10-01T01:18:12.190Z,6.50
2022-10-01T01:20:49.862Z,6.75
2022-10-01T01:23:17.473Z,6.13
2022-10-01T01:25:55.060Z,6.85
2022-10-01T01:28:37.708Z,7.50
2022-10-01T01:31:10.429Z,8.02
2022-10-01T01:33:40.270Z,7.82
2022-10-01T01:36:13.864Z,7.55
2022-10-01T01:38:49.143Z,6.80
2022-10-01T01:41:20.245Z,7.53
2022-10-01T01:43:52.039Z,8.13
2022-10-01T01:46:21.083Z,8.85
2022-10-01T01:48:53.345Z,9.57
2022-10-01T01:52:07.340Z,9.35
2022-10-01T01:54:36.633Z,8.77
2022-10-01T01:57:05.981Z,9.57
2022-10-01T01:59:34.138Z,9.95
2022-10-01T02:02:02.382Z,10.57
2022-10-01T02:04:45.444Z,11.00
2022-10-01T02:07:36.831Z,11.23
2022-10-01T02:10:10.790Z,10.63
2022-10-01T02:12:55.635Z,10.73
2022-10-01T02:15:49.547Z,10.75
2022-10-01T02:18:30.277Z,11.48
2022-10-01T02:21:27.234Z,11.00
2022-10-01T02:24:19.461Z,11.40
2022-10-01T02:26:50.197Z,11.15
2022-10-01T02:29:21.077Z,12.05
2022-10-01T02:31:53.476Z,11.23
2022-10-01T02:34:24.555Z,11.90
2022-10-01T02:36:53.967Z,12.35
2022-10-01T02:39:23.909Z,12.93
2022-10-01T02:41:53.916Z,11.60
2022-10-01T02:44:27.429Z,11.50
2022-10-01T02:47:15.185Z,11.98
2022-10-01T02:49:43.147Z,11.60
2022-10-01T02:52:29.462Z,12.23
2022-10-01T02:55:02.793Z,12.32
2022-10-01T02:57:31.071Z,13.57
2022-10-01T03:00:06.504Z,14.88
2022-10-01T03:02:34.213Z,15.10
2022-10-01T03:05:02.261Z,15.10
2022-10-01T03:07:31.895Z,14.80
2022-10-01T03:10:05.320Z,14.20
2022-10-01T03:12:33.257Z,13.63
2022-10-01T03:15:01.109Z,13.00
2022-10-01T03:17:28.845Z,14.25
2022-10-01T03:19:56.607Z,15.57
2022-10-01T03:22:24.638Z,15.73
2022-10-01T03:24:53.426Z,16.25
2022-10-01T03:27:21.954Z,17.05
2022-10-01T03:29:50.043Z,18.77
2022-10-01T03:32:18.292Z,17.80
2022-10-01T03:34:47.545Z,19.92
2022-10-01T03:37:15.418Z,20.55
2022-10-01T03:39:43.096Z,21.13
2022-10-01T03:42:10.608Z,22.98
2022-10-01T03:44:38.299Z,25.05
2022-10-01T03:47:05.756Z,26.60
2022-10-01T03:49:34.752Z,24.45
2022-10-01T03:52:03.650Z,24.77
2022-10-01T03:54:34.373Z,25.80
2022-10-01T03:57:02.155Z,26.00
2022-10-01T03:59:29.922Z,24.25
2022-10-01T04:01:57.931Z,24.58
2022-10-01T04:04:26.187Z,24.42
2022-10-01T04:06:53.888Z,24.92
2022-10-01T04:09:24.343Z,24.98
2022-10-01T04:11:52.891Z,24.20
2022-10-01T04:14:20.602Z,25.00
2022-10-01T04:16:52.562Z,23.25
2022-10-01T04:19:21.921Z,24.15
2022-10-01T04:21:49.961Z,24.35
2022-10-01T04:24:17.423Z,22.95
2022-10-01T04:26:44.931Z,21.90
2022-10-01T04:29:12.512Z,21.98
2022-10-01T04:31:40.496Z,22.92
2022-10-01T04:34:08.205Z,24.13
2022-10-01T04:36:35.830Z,25.60
2022-10-01T04:39:03.879Z,26.52
2022-10-01T04:41:32.074Z,26.13
2022-10-01T04:44:00.683Z,25.02
2022-10-01T04:46:30.486Z,25.42
2022-10-01T04:48:58.854Z,25.45
2022-10-01T04:51:26.926Z,26.30
2022-10-01T04:53:55.658Z,25.48
2022-10-01T04:56:23.277Z,24.98
2022-10-01T04:58:51.017Z,25.10
2022-10-01T05:01:18.903Z,25.73
2022-10-01T05:03:47.635Z,24.83
2022-10-01T05:06:15.634Z,23.98
2022-10-01T05:08:43.299Z,25.40
2022-10-01T05:11:11.142Z,27.73
2022-10-01T05:13:38.754Z,29.15
2022-10-01T05:16:06.647Z,28.55
2022-10-01T05:18:34.439Z,28.15
2022-10-01T05:21:11.985Z,29.05
2022-10-01T05:23:40.107Z,28.65
2022-10-01T05:26:08.535Z,28.08
2022-10-01T05:28:36.734Z,29.15
2022-10-01T05:31:04.873Z,28.98
2022-10-01T05:33:34.199Z,29.92
2022-10-01T05:36:02.004Z,28.52
2022-10-01T05:38:30.019Z,28.95
2022-10-01T05:40:57.634Z,29.52
2022-10-01T05:43:27.078Z,29.38
2022-10-01T05:45:55.252Z,31.33
2022-10-01T05:48:22.903Z,30.35
2022-10-01T05:50:50.585Z,29.88
2022-10-01T05:53:18.201Z,30.73
2022-10-01T05:55:45.950Z,30.23
2022-10-01T05:58:14.511Z,32.60
2022-10-01T06:00:43.085Z,32.50
2022-10-01T06:03:13.081Z,32.85
2022-10-01T06:05:43.964Z,31.88
2022-10-01T06:08:11.469Z,32.38
2022-10-01T06:10:39.260Z,30.15
2022-10-01T06:13:07.886Z,32.55
2022-10-01T06:15:38.341Z,34.55
2022-10-01T06:18:08.797Z,30.58
2022-10-01T06:20:36.872Z,31.50
2022-10-01T06:23:07.350Z,32.67
2022-10-01T06:25:36.453Z,31.63
2022-10-01T06:28:05.997Z,28.85
2022-10-01T06:30:35.614Z,32.00
2022-10-01T06:33:11.860Z,28.98
2022-10-01T06:35:48.296Z,28.00
2022-10-01T06:38:17.426Z,27.92
2022-10-01T06:40:45.001Z,25.20
2022-10-01T06:43:12.651Z,25.27
2022-10-01T06:45:42.640Z,23.48
2022-10-01T06:48:14.629Z,21.02
2022-10-01T06:50:47.565Z,20.58
2022-10-01T06:53:21.608Z,19.10
2022-10-01T06:55:50.128Z,18.70
2022-10-01T06:58:20.993Z,18.63
2022-10-01T07:00:49.393Z,17.83
2022-10-01T07:03:19.941Z,16.15
2022-10-01T07:05:49.857Z,14.63
2022-10-01T07:08:18.050Z,13.32
2022-10-01T07:10:45.805Z,12.30
2022-10-01T07:13:17.810Z,12.25
2022-10-01T07:15:46.087Z,11.60
2022-10-01T07:18:14.003Z,10.93
2022-10-01T07:20:41.883Z,11.00
2022-10-01T07:23:13.806Z,11.30
2022-10-01T07:25:42.341Z,10.40
2022-10-01T07:28:16.570Z,10.20
2022-10-01T07:30:58.315Z,9.75
2022-10-01T07:33:26.228Z,9.05
2022-10-01T07:35:54.223Z,8.32
2022-10-01T07:38:22.060Z,7.43
2022-10-01T07:40:54.685Z,7.97
2022-10-01T07:43:23.082Z,8.35
2022-10-01T07:45:52.764Z,7.72
2022-10-01T07:48:20.546Z,7.43
2022-10-01T07:50:48.095Z,9.30
2022-10-01T07:53:21.145Z,9.18
2022-10-01T07:55:48.715Z,8.25
2022-10-01T07:58:16.171Z,8.38
2022-10-01T08:00:43.642Z,7.78
2022-10-01T08:03:13.794Z,8.43
2022-10-01T08:05:43.231Z,8.23
2022-10-01T08:08:10.597Z,8.15
2022-10-01T08:10:38.661Z,8.52
2022-10-01T08:13:15.093Z,9.25
2022-10-01T08:15:44.244Z,13.05
2022-10-01T08:18:12.378Z,9.52
2022-10-01T08:20:39.946Z,10.32
2022-10-01T08:23:10.516Z,10.05
2022-10-01T08:25:39.773Z,9.32
2022-10-01T08:28:08.523Z,10.02
2022-10-01T08:30:39.882Z,10.55
2022-10-01T08:33:10.436Z,11.60
2022-10-01T08:35:43.516Z,10.38
2022-10-01T08:38:12.113Z,12.35
2022-10-01T08:40:53.304Z,12.20
2022-10-01T08:43:29.879Z,12.57
2022-10-01T08:46:04.655Z,16.27
2022-10-01T08:48:58.766Z,14.38
2022-10-01T08:51:44.978Z,16.80
2022-10-01T08:54:24.959Z,15.27
2022-10-01T08:56:55.134Z,15.20
2022-10-01T08:59:29.765Z,15.80
2022-10-01T09:01:59.119Z,16.80
2022-10-01T09:04:27.452Z,15.48
2022-10-01T09:07:13.516Z,17.05
2022-10-01T09:09:50.024Z,17.27
2022-10-01T09:12:39.996Z,16.35
2022-10-01T09:15:38.101Z,17.40
2022-10-01T09:18:38.954Z,17.77
2022-10-01T09:21:22.678Z,16.95
2022-10-01T09:23:59.095Z,17.38
2022-10-01T09:26:26.642Z,19.15
2022-10-01T09:28:55.811Z,19.40
2022-10-01T09:31:37.782Z,17.73
2022-10-01T09:34:19.532Z,20.38
2022-10-01T09:37:20.968Z,21.58
2022-10-01T09:39:51.375Z,17.35
2022-10-01T09:42:18.934Z,21.33
2022-10-01T09:44:47.636Z,18.00
2022-10-01T09:47:18.323Z,19.80
2022-10-01T09:49:48.305Z,19.30
2022-10-01T09:52:31.456Z,17.17
2022-10-01T09:55:19.561Z,19.33
2022-10-01T09:57:53.731Z,19.00
2022-10-01T10:00:24.428Z,20.48
2022-10-01T10:02:54.243Z,22.20
2022-10-01T10:05:30.363Z,21.33
2022-10-01T10:08:03.127Z,21.52
2022-10-01T10:10:36.936Z,20.10
2022-10-01T10:13:10.875Z,18.98
2022-10-01T10:15:49.359Z,17.33
2022-10-01T10:18:24.039Z,18.48
2022-10-01T10:20:54.028Z,19.30
2022-10-01T10:23:26.084Z,16.58
2022-10-01T10:26:04.669Z,17.50
2022-10-01T10:28:46.767Z,16.35
2022-10-01T10:31:16.723Z,15.63
2022-10-01T10:34:02.924Z,15.90
2022-10-01T10:36:34.429Z,13.57
2022-10-01T10:39:06.152Z,12.93
2022-10-01T10:41:34.855Z,11.93
2022-10-01T10:44:07.723Z,12.63
2022-10-01T10:46:41.682Z,12.18
2022-10-01T10:49:27.991Z,13.07
2022-10-01T10:51:57.288Z,12.57
2022-10-01T10:54:24.648Z,15.27
2022-10-01T10:57:03.598Z,13.80
2022-10-01T10:59:33.313Z,12.73
2022-10-01T11:02:06.114Z,12.93
2022-10-01T11:04:39.015Z,13.10
2022-10-01T11:07:06.784Z,13.48
2022-10-01T11:09:40.215Z,13.55
2022-10-01T11:12:36.655Z,14.00
2022-10-01T11:15:18.959Z,13.50
2022-10-01T11:17:55.347Z,14.70
2022-10-01T11:20:50.490Z,14.57
2022-10-01T11:23:28.214Z,14.15
2022-10-01T11:25:55.601Z,15.23
2022-10-01T11:28:51.591Z,15.68
2022-10-01T11:31:47.007Z,14.43
2022-10-01T11:34:34.087Z,13.88
2022-10-01T11:37:21.468Z,12.48
2022-10-01T11:39:53.587Z,10.38
2022-10-01T11:42:27.754Z,10.75
2022-10-01T11:45:04.554Z,12.02
2022-10-01T11:47:38.065Z,13.05
2022-10-01T11:50:30.426Z,12.63
2022-10-01T11:53:17.248Z,11.48
2022-10-01T11:56:30.677Z,12.43
2022-10-01T11:59:21.574Z,14.60
2022-10-01T12:02:03.781Z,12.82
2022-10-01T12:04:45.917Z,12.55
2022-10-01T12:07:20.343Z,13.55
2022-10-01T12:10:07.186Z,13.68
2022-10-01T12:12:51.273Z,12.93
2022-10-01T12:15:32.864Z,18.42
2022-10-01T12:18:04.276Z,11.07
2022-10-01T12:20:46.237Z,11.00
2022-10-01T12:23:28.406Z,9.50
2022-10-01T12:26:07.289Z,7.93
2022-10-01T12:28:59.926Z,6.90
2022-10-01T12:31:42.001Z,6.47
2022-10-01T12:34:34.130Z,7.57
2022-10-01T12:37:18.842Z,7.43
2022-10-01T12:40:17.934Z,6.68
2022-10-01T12:42:54.387Z,6.70
2022-10-01T12:45:26.830Z,7.85
2022-10-01T12:48:06.293Z,8.00
2022-10-01T12:50:54.241Z,6.60
2022-10-01T12:53:36.440Z,7.40
2022-10-01T12:56:10.627Z,7.18
2022-10-01T12:59:06.476Z,7.88
2022-10-01T13:01:50.389Z,7.55
2022-10-01T13:04:38.632Z,7.97
2022-10-01T13:07:34.988Z,7.32
2022-10-01T13:10:22.706Z,6.55
2022-10-01T13:12:57.788Z,7.28
2022-10-01T13:15:31.802Z,6.07
2022-10-01T13:18:41.397Z,6.32
2022-10-01T13:21:21.507Z,6.60
2022-10-01T13:24:00.805Z,7.20
2022-10-01T13:27:01.389Z,7.45
2022-10-01T13:29:36.996Z,5.40
2022-10-01T13:32:25.897Z,5.38
2022-10-01T13:34:54.022Z,5.78
2022-10-01T13:37:30.378Z,5.88
2022-10-01T13:39:59.145Z,5.97
2022-10-01T13:42:44.080Z,5.93
2022-10-01T13:45:42.826Z,5.95
2022-10-01T13:48:19.385Z,5.03
2022-10-01T13:51:10.743Z,5.07
2022-10-01T13:53:42.047Z,4.60
2022-10-01T13:56:13.133Z,4.85
2022-10-01T13:58:45.603Z,4.40
2022-10-01T14:01:19.995Z,4.20
2022-10-01T14:04:15.070Z,3.95
2022-10-01T14:07:01.925Z,4.82
2022-10-01T14:09:36.689Z,4.60
2022-10-01T14:12:31.715Z,4.00
2022-10-01T14:15:32.478Z,4.47
2022-10-01T14:18:04.114Z,3.88
2022-10-01T14:20:42.628Z,3.97
2022-10-01T14:23:20.190Z,4.10
2022-10-01T14:26:12.209Z,3.85
2022-10-01T14:28:54.414Z,3.55
2022-10-01T14:31:21.859Z,3.53
2022-10-01T14:33:52.378Z,4.10
2022-10-01T14:36:32.344Z,3.50
2022-10-01T14:39:12.621Z,3.30
2022-10-01T14:41:40.219Z,3.35
2022-10-01T14:44:31.689Z,3.30
2022-10-01T14:47:00.497Z,3.60
2022-10-01T14:49:32.648Z,2.95
2022-10-01T14:52:01.648Z,3.45
2022-10-01T14:54:33.355Z,3.33
2022-10-01T14:57:02.033Z,3.10
2022-10-01T14:59:35.644Z,2.95
2022-10-01T15:02:16.110Z,3.38
2022-10-01T15:04:48.704Z,4.10
2022-10-01T15:07:17.754Z,3.95
2022-10-01T15:09:46.832Z,3.30
2022-10-01T15:12:16.578Z,3.30
2022-10-01T15:14:45.262Z,2.88
2022-10-01T15:17:31.038Z,2.97
2022-10-01T15:19:58.708Z,3.63
2022-10-01T15:22:30.029Z,3.13
2022-10-01T15:25:01.041Z,3.47
2022-10-01T15:27:29.678Z,3.72
2022-10-01T15:29:58.852Z,3.83
2022-10-01T15:32:28.265Z,3.53
2022-10-01T15:34:59.867Z,3.13
2022-10-01T15:37:33.421Z,4.03
2022-10-01T15:40:02.479Z,3.60
2022-10-01T15:42:34.845Z,3.80
2022-10-01T15:47:37.610Z,2.63
2022-10-01T15:50:28.347Z,3.00
2022-10-01T15:53:10.203Z,3.00
2022-10-01T15:55:43.628Z,3.25
2022-10-01T15:58:17.822Z,3.22
2022-10-01T16:00:48.796Z,2.70
2022-10-01T16:03:24.917Z,2.47
2022-10-01T16:05:56.778Z,2.63
2022-10-01T16:08:32.855Z,2.50
2022-10-01T16:11:20.514Z,2.88
2022-10-01T16:13:52.767Z,2.83
2022-10-01T16:16:29.416Z,3.42
2022-10-01T16:19:24.195Z,3.25
2022-10-01T16:22:15.206Z,3.70
2022-10-01T16:24:45.642Z,3.90
2022-10-01T16:27:18.746Z,3.88
2022-10-01T16:30:09.389Z,4.28
2022-10-01T16:32:36.830Z,5.28
2022-10-01T16:35:20.890Z,4.45
2022-10-01T16:37:50.339Z,4.63
2022-10-01T16:40:21.124Z,4.45
2022-10-01T16:42:51.731Z,4.95
2022-10-01T16:45:27.859Z,5.03
2022-10-01T16:47:56.776Z,6.50
2022-10-01T16:50:25.082Z,6.43
2022-10-01T16:52:56.217Z,6.97
2022-10-01T16:55:32.309Z,9.27
2022-10-01T16:58:02.058Z,8.88
2022-10-01T17:00:29.797Z,8.10
2022-10-01T17:02:58.098Z,6.47
2022-10-01T17:05:31.238Z,8.40
2022-10-01T17:08:03.480Z,10.45
2022-10-01T17:10:35.849Z,8.50
2022-10-01T17:15:32.123Z,10.23
2022-10-01T17:18:00.874Z,6.60
2022-10-01T17:20:32.124Z,6.75
2022-10-01T17:22:59.647Z,6.63
2022-10-01T17:25:32.122Z,6.35
2022-10-01T17:28:01.629Z,6.18
2022-10-01T17:30:30.792Z,6.68
2022-10-01T17:33:00.006Z,6.80
2022-10-01T17:35:29.067Z,6.55
2022-10-01T17:37:56.958Z,6.75
2022-10-01T17:40:25.882Z,7.32
2022-10-01T17:42:53.538Z,8.52
2022-10-01T17:45:21.127Z,8.82
2022-10-01T17:47:50.450Z,8.95
2022-10-01T17:50:18.239Z,11.73
2022-10-01T17:52:48.784Z,10.30
2022-10-01T17:55:17.394Z,9.60
2022-10-01T17:57:44.969Z,9.30
2022-10-01T18:00:13.166Z,9.65
2022-10-01T18:02:42.859Z,10.00
2022-10-01T18:05:12.786Z,10.05
2022-10-01T18:07:41.060Z,10.00
2022-10-01T18:10:11.517Z,10.05
2022-10-01T18:12:39.229Z,15.80
2022-10-01T18:15:07.372Z,11.98
2022-10-01T18:17:36.673Z,16.13
2022-10-01T18:20:07.922Z,19.25
2022-10-01T18:22:39.043Z,17.58
2022-10-01T18:25:07.082Z,15.68
2022-10-01T18:27:34.879Z,15.65
2022-10-01T18:30:02.399Z,13.40
2022-10-01T18:32:40.959Z,12.63
2022-10-01T18:35:30.570Z,11.38
2022-10-01T18:38:24.365Z,11.18
2022-10-01T18:40:57.255Z,11.00
2022-10-01T18:43:26.213Z,11.27
2022-10-01T18:46:18.004Z,10.48
2022-10-01T18:48:55.651Z,10.30
2022-10-01T18:51:54.464Z,10.27
2022-10-01T18:54:40.184Z,11.20
2022-10-01T18:57:29.144Z,12.23
2022-10-01T19:00:08.890Z,11.90
2022-10-01T19:03:02.666Z,11.63
2022-10-01T19:05:33.189Z,11.82
2022-10-01T19:08:23.576Z,13.15
2022-10-01T19:11:18.012Z,14.90
2022-10-01T19:14:02.541Z,15.45
2022-10-01T19:16:47.706Z,14.63
2022-10-01T19:19:38.971Z,14.25
2022-10-01T19:22:18.673Z,13.02
2022-10-01T19:25:07.326Z,12.85
2022-10-01T19:27:53.047Z,12.60
2022-10-01T19:30:21.007Z,12.15
2022-10-01T19:33:03.192Z,12.57
2022-10-01T19:35:40.722Z,12.95
2022-10-01T19:38:19.945Z,12.13
2022-10-01T19:41:12.775Z,14.50
2022-10-01T19:43:46.016Z,16.75
2022-10-01T19:46:16.565Z,17.20
2022-10-01T19:48:51.140Z,19.48
2022-10-01T19:51:27.798Z,18.95
2022-10-01T19:54:01.131Z,17.42
2022-10-01T19:56:31.656Z,21.60
2022-10-01T19:59:14.405Z,17.40
2022-10-01T20:02:09.826Z,14.40
2022-10-01T20:04:45.693Z,14.75
2022-10-01T20:07:30.137Z,14.90
2022-10-01T20:10:12.541Z,13.98
2022-10-01T20:12:55.942Z,15.57
2022-10-01T20:15:38.762Z,14.90
2022-10-01T20:18:28.241Z,16.42
2022-10-01T20:21:17.501Z,14.98
2022-10-01T20:24:03.469Z,15.20
2022-10-01T20:26:37.710Z,15.88
2022-10-01T20:29:11.225Z,15.15
2022-10-01T20:32:13.353Z,15.75
2022-10-01T20:34:57.096Z,15.73
2022-10-01T20:37:43.627Z,15.02
2022-10-01T20:40:14.728Z,15.48
2022-10-01T20:42:47.633Z,15.25
2022-10-01T20:45:28.470Z,15.50
2022-10-01T20:48:05.479Z,14.88
2022-10-01T20:50:43.832Z,16.30
2022-10-01T20:53:29.635Z,16.48
2022-10-01T20:56:04.423Z,16.00
2022-10-01T20:58:38.758Z,16.25
2022-10-01T21:01:16.927Z,16.35
2022-10-01T21:03:49.394Z,17.13
2022-10-01T21:09:01.904Z,16.70
2022-10-01T21:11:34.632Z,17.10
2022-10-01T21:14:25.439Z,15.48
2022-10-01T21:17:10.762Z,15.18
2022-10-01T21:19:38.097Z,14.75
2022-10-01T21:22:27.022Z,14.98
2022-10-01T21:25:03.302Z,14.70
2022-10-01T21:27:47.978Z,15.05
2022-10-01T21:30:20.542Z,16.08
2022-10-01T21:35:58.842Z,15.85
2022-10-01T21:38:29.098Z,17.05
2022-10-01T21:41:07.888Z,16.77
2022-10-01T21:43:49.869Z,17.40
2022-10-01T21:46:43.506Z,16.40
2022-10-01T21:49:28.770Z,17.13
2022-10-01T21:52:10.847Z,16.70
2022-10-01T21:55:17.459Z,17.38
2022-10-01T21:58:06.757Z,18.92
2022-10-01T22:00:34.329Z,17.80
2022-10-01T22:03:26.258Z,17.70
2022-10-01T22:05:56.761Z,17.70
2022-10-01T22:08:43.754Z,17.88
2022-10-01T22:11:24.261Z,17.95
2022-10-01T22:13:59.071Z,18.10
2022-10-01T22:16:32.221Z,17.30
2022-10-01T22:19:12.626Z,16.90
2022-10-01T22:21:46.165Z,17.35
2022-10-01T22:24:27.101Z,16.52
2022-10-01T22:26:59.842Z,16.85
2022-10-01T22:29:31.066Z,18.00
2022-10-01T22:32:03.720Z,17.52
2022-10-01T22:35:06.896Z,18.05
2022-10-01T22:37:40.282Z,17.65
2022-10-01T22:40:18.209Z,17.65
2022-10-01T22:43:13.178Z,16.65
2022-10-01T22:45:59.484Z,16.60
2022-10-01T22:48:37.734Z,17.20
2022-10-01T22:51:23.652Z,18.48
2022-10-01T22:54:21.565Z,16.98
2022-10-01T22:57:05.097Z,17.23
2022-10-01T22:59:53.379Z,16.10
2022-10-01T23:02:50.813Z,16.05
2022-10-01T23:05:39.868Z,16.42
2022-10-01T23:08:32.432Z,16.45
2022-10-01T23:11:17.050Z,17.35
2022-10-01T23:13:59.366Z,16.23
2022-10-01T23:16:26.758Z,15.38
2022-10-01T23:19:09.016Z,16.45
2022-10-01T23:22:05.135Z,17.02
2022-10-01T23:25:03.011Z,15.80
2022-10-01T23:27:43.609Z,16.23
2022-10-01T23:30:15.141Z,14.85
2022-10-01T23:33:01.394Z,16.70
2022-10-01T23:35:56.544Z,16.95
2022-10-01T23:38:23.920Z,17.38
2022-10-01T23:40:55.656Z,15.25
2022-10-01T23:43:32.725Z,16.00
2022-10-01T23:46:09.739Z,15.40
2022-10-01T23:48:50.281Z,16.15
2022-10-01T23:51:24.619Z,16.23
2022-10-01T23:54:13.105Z,15.98
2022-10-01T23:56:49.963Z,15.55
2022-10-01T23:59:37.456Z,15.75
